createdAt,value
2023-01-20T00:00:33.500Z,95.12
2023-01-20T00:02:59.970Z,94.82
2023-01-20T00:05:26.587Z,95.35
2023-01-20T00:07:53.276Z,95.78
2023-01-20T00:10:19.797Z,95.48
2023-01-20T00:12:46.276Z,95.73
2023-01-20T00:15:13.032Z,94.99
2023-01-20T00:17:39.595Z,95.61
2023-01-20T00:20:06.543Z,95.74
2023-01-20T00:22:34.118Z,95.92
2023-01-20T00:25:00.825Z,95.88
2023-01-20T00:27:27.309Z,96.02
2023-01-20T00:29:53.842Z,95.94
2023-01-20T00:32:20.295Z,95.18
2023-01-20T00:34:46.710Z,95.99
2023-01-20T00:37:13.158Z,94.73
2023-01-20T00:39:39.626Z,94.50
2023-01-20T00:42:06.389Z,95.31
2023-01-20T00:44:32.833Z,95.59
2023-01-20T00:46:59.330Z,94.79
2023-01-20T00:49:25.744Z,94.72
2023-01-20T00:51:52.161Z,93.75
2023-01-20T00:54:18.639Z,93.63
2023-01-20T00:56:45.212Z,94.30
2023-01-20T00:59:11.848Z,93.93
2023-01-20T01:01:38.363Z,94.18
2023-01-20T01:04:05.122Z,94.76
2023-01-20T01:06:31.590Z,94.07
2023-01-20T01:08:58.099Z,94.88
2023-01-20T01:11:24.662Z,95.11
2023-01-20T01:13:51.262Z,93.85
2023-01-20T01:16:17.856Z,93.38
2023-01-20T01:18:44.446Z,93.72
2023-01-20T01:21:14.107Z,92.79
2023-01-20T01:23:40.720Z,93.34
2023-01-20T01:26:07.274Z,93.71
2023-01-20T01:28:33.734Z,93.56
2023-01-20T01:31:04.838Z,93.13
2023-01-20T01:33:32.674Z,93.25
2023-01-20T01:36:01.157Z,92.44
2023-01-20T01:38:29.074Z,93.36
2023-01-20T01:40:56.318Z,92.23
2023-01-20T01:43:26.847Z,92.58
2023-01-20T01:45:53.804Z,92.41
2023-01-20T01:48:33.686Z,92.51
2023-01-20T01:51:09.165Z,92.09
2023-01-20T01:53:48.627Z,92.13
2023-01-20T01:56:16.044Z,92.33
2023-01-20T01:58:46.422Z,93.00
2023-01-20T02:01:13.257Z,93.83
2023-01-20T02:03:54.617Z,93.08
2023-01-20T02:07:35.789Z,91.90
2023-01-20T02:10:02.373Z,92.05
2023-01-20T02:12:29.523Z,92.24
2023-01-20T02:14:59.492Z,91.61
2023-01-20T02:17:31.405Z,91.04
2023-01-20T02:20:16.220Z,91.46
2023-01-20T02:22:56.080Z,92.06
2023-01-20T02:25:22.430Z,92.33
2023-01-20T02:28:12.302Z,91.62
2023-01-20T02:31:09.860Z,92.12
2023-01-20T02:34:03.434Z,91.89
2023-01-20T02:36:45.458Z,92.12
2023-01-20T02:39:49.458Z,91.84
2023-01-20T02:42:32.051Z,92.28
2023-01-20T02:45:09.406Z,91.89
2023-01-20T02:47:43.232Z,90.87
2023-01-20T02:50:27.461Z,91.09
2023-01-20T02:52:57.755Z,90.55
2023-01-20T02:55:34.051Z,90.32
2023-01-20T02:58:08.320Z,90.85
2023-01-20T03:00:44.680Z,90.61
2023-01-20T03:03:15.375Z,91.18
2023-01-20T03:05:49.191Z,91.58
2023-01-20T03:08:18.045Z,91.70
2023-01-20T03:10:47.784Z,91.44
2023-01-20T03:13:19.160Z,90.47
2023-01-20T03:15:59.320Z,90.82
2023-01-20T03:18:29.339Z,91.34
2023-01-20T03:20:59.425Z,90.97
2023-01-20T03:23:30.407Z,90.54
2023-01-20T03:25:57.847Z,91.41
2023-01-20T03:28:24.372Z,92.42
2023-01-20T03:30:52.091Z,91.91
2023-01-20T03:33:18.949Z,91.27
2023-01-20T03:35:45.532Z,91.56
2023-01-20T03:38:12.217Z,91.48
2023-01-20T03:40:46.794Z,92.38
2023-01-20T03:43:42.420Z,92.16
2023-01-20T03:46:19.470Z,92.04
2023-01-20T03:48:53.916Z,92.24
2023-01-20T03:51:34.636Z,92.19
2023-01-20T03:54:06.961Z,92.72
2023-01-20T03:56:41.221Z,91.91
2023-01-20T03:59:11.188Z,92.84
2023-01-20T04:01:41.785Z,93.24
2023-01-20T04:04:11.926Z,93.77
2023-01-20T04:06:41.386Z,93.90
2023-01-20T04:09:12.905Z,93.18
2023-01-20T04:11:39.416Z,93.33
2023-01-20T04:14:08.821Z,93.47
2023-01-20T04:16:36.888Z,93.17
2023-01-20T04:19:03.597Z,93.21
2023-01-20T04:21:35.293Z,93.46
2023-01-20T04:24:04.473Z,93.23
2023-01-20T04:26:30.936Z,93.99
2023-01-20T04:28:57.543Z,94.02
2023-01-20T04:31:30.536Z,93.96
2023-01-20T04:33:57.811Z,93.83
2023-01-20T04:36:24.284Z,93.74
2023-01-20T04:38:50.745Z,93.95
2023-01-20T04:41:17.211Z,93.54
2023-01-20T04:43:45.250Z,93.71
2023-01-20T04:46:12.581Z,93.21
2023-01-20T04:48:39.563Z,94.09
2023-01-20T04:51:07.631Z,93.85
2023-01-20T04:53:34.810Z,94.04
2023-01-20T04:56:01.349Z,93.43
2023-01-20T04:58:27.990Z,92.92
2023-01-20T05:00:54.560Z,93.41
2023-01-20T05:03:21.561Z,93.84
2023-01-20T05:05:55.024Z,93.48
2023-01-20T05:08:21.634Z,93.67
2023-01-20T05:10:48.241Z,93.43
2023-01-20T05:13:14.712Z,93.88
2023-01-20T05:15:42.610Z,94.09
2023-01-20T05:18:09.163Z,93.66
2023-01-20T05:20:35.694Z,94.35
2023-01-20T05:23:02.257Z,95.59
2023-01-20T05:25:28.732Z,95.42
2023-01-20T05:27:55.153Z,94.77
2023-01-20T05:30:21.732Z,95.50
2023-01-20T05:33:03.309Z,96.80
2023-01-20T05:35:29.789Z,96.50
2023-01-20T05:37:57.081Z,95.69
2023-01-20T05:40:23.680Z,95.72
2023-01-20T05:42:50.141Z,95.21
2023-01-20T05:45:17.347Z,95.13
2023-01-20T05:47:43.991Z,95.20
2023-01-20T05:50:11.282Z,95.32
2023-01-20T05:52:37.778Z,94.97
2023-01-20T05:55:05.243Z,95.19
2023-01-20T05:57:31.702Z,94.82
2023-01-20T05:59:58.188Z,94.60
2023-01-20T06:02:24.790Z,94.75
2023-01-20T06:04:51.255Z,94.63
2023-01-20T06:07:17.844Z,94.68
2023-01-20T06:09:44.451Z,94.42
2023-01-20T06:12:10.877Z,94.96
2023-01-20T06:14:37.456Z,94.34
2023-01-20T06:17:04.031Z,94.61
2023-01-20T06:19:30.645Z,93.55
2023-01-20T06:21:57.111Z,94.21
2023-01-20T06:24:23.540Z,93.65
2023-01-20T06:26:51.027Z,94.41
2023-01-20T06:29:17.759Z,94.25
2023-01-20T06:31:44.900Z,93.54
2023-01-20T06:34:12.312Z,93.75
2023-01-20T06:36:39.493Z,94.93
2023-01-20T06:39:06.205Z,94.99
2023-01-20T06:41:32.704Z,95.29
2023-01-20T06:43:59.211Z,96.66
2023-01-20T06:46:25.993Z,96.49
2023-01-20T06:48:52.660Z,95.15
2023-01-20T06:51:20.725Z,95.58
2023-01-20T06:53:47.698Z,95.75
2023-01-20T06:56:15.759Z,95.47
2023-01-20T06:58:42.366Z,95.43
2023-01-20T07:01:18.531Z,95.76
2023-01-20T07:03:45.222Z,95.71
2023-01-20T07:06:15.965Z,95.04
2023-01-20T07:08:45.973Z,95.15
2023-01-20T07:11:13.237Z,94.71
2023-01-20T07:13:39.885Z,95.80
2023-01-20T07:16:08.866Z,95.29
2023-01-20T07:18:37.685Z,94.43
2023-01-20T07:21:04.941Z,95.05
2023-01-20T07:23:33.603Z,95.20
2023-01-20T07:26:08.088Z,95.18
2023-01-20T07:28:35.408Z,95.84
2023-01-20T07:31:10.927Z,95.63
2023-01-20T07:33:38.006Z,96.40
2023-01-20T07:36:05.375Z,96.19
2023-01-20T07:38:32.357Z,95.60
2023-01-20T07:41:05.092Z,96.06
2023-01-20T07:43:32.455Z,95.12
2023-01-20T07:46:04.407Z,94.88
2023-01-20T07:48:32.490Z,94.49
2023-01-20T07:51:05.734Z,95.49
2023-01-20T07:53:34.433Z,95.71
2023-01-20T07:56:06.376Z,95.57
2023-01-20T07:58:33.542Z,95.36
2023-01-20T08:01:11.591Z,96.02
2023-01-20T08:03:38.395Z,96.50
2023-01-20T08:06:06.751Z,96.27
2023-01-20T08:08:34.087Z,96.23
2023-01-20T08:11:01.402Z,95.93
2023-01-20T08:13:32.050Z,95.88
2023-01-20T08:16:04.034Z,95.38
2023-01-20T08:18:32.195Z,95.27
2023-01-20T08:20:58.645Z,95.49
2023-01-20T08:23:25.597Z,95.46
2023-01-20T08:26:00.092Z,96.42
2023-01-20T08:28:27.092Z,95.71
2023-01-20T08:30:54.136Z,96.01
2023-01-20T08:33:21.052Z,96.45
2023-01-20T08:35:47.919Z,95.57
2023-01-20T08:38:14.646Z,95.04
2023-01-20T08:40:43.218Z,94.45
2023-01-20T08:43:09.902Z,95.36
2023-01-20T08:45:36.471Z,94.50
2023-01-20T08:48:02.996Z,94.35
2023-01-20T08:50:29.518Z,93.90
2023-01-20T08:52:55.964Z,92.85
2023-01-20T08:55:22.513Z,92.92
2023-01-20T08:57:49.017Z,93.39
2023-01-20T09:00:16.301Z,94.36
2023-01-20T09:02:42.823Z,94.67
2023-01-20T09:05:09.756Z,94.87
2023-01-20T09:07:36.314Z,94.93
2023-01-20T09:10:03.827Z,93.47
2023-01-20T09:12:30.318Z,93.79
2023-01-20T09:14:56.771Z,93.76
2023-01-20T09:17:23.386Z,94.22
2023-01-20T09:19:49.975Z,93.24
2023-01-20T09:22:16.660Z,92.79
2023-01-20T09:24:43.377Z,92.49
2023-01-20T09:27:09.823Z,91.96
2023-01-20T09:29:36.714Z,90.82
2023-01-20T09:32:03.314Z,91.40
2023-01-20T09:34:31.408Z,91.43
2023-01-20T09:37:19.181Z,91.38
2023-01-20T09:40:05.133Z,91.43
2023-01-20T09:43:07.800Z,90.93
2023-01-20T09:45:43.547Z,90.88
2023-01-20T09:48:40.796Z,90.64
2023-01-20T09:51:36.493Z,90.47
2023-01-20T09:54:16.981Z,89.36
2023-01-20T09:56:47.794Z,88.74
2023-01-20T09:59:36.136Z,88.73
2023-01-20T10:02:11.428Z,88.63
2023-01-20T10:04:46.731Z,89.00
2023-01-20T10:07:15.892Z,88.67
2023-01-20T10:09:45.211Z,86.88
2023-01-20T10:12:19.530Z,88.25
2023-01-20T10:14:55.785Z,88.06
2023-01-20T10:17:33.912Z,87.85
2023-01-20T10:20:12.749Z,88.05
2023-01-20T10:22:50.352Z,88.31
2023-01-20T10:25:52.215Z,88.30
2023-01-20T10:28:22.709Z,87.10
2023-01-20T10:30:49.456Z,86.70
2023-01-20T10:33:24.144Z,86.41
2023-01-20T10:35:53.996Z,86.86
2023-01-20T10:38:38.301Z,86.51
2023-01-20T10:41:20.340Z,86.13
2023-01-20T10:43:48.112Z,86.94
2023-01-20T10:46:20.434Z,86.82
2023-01-20T10:48:55.985Z,87.04
2023-01-20T10:51:40.730Z,85.96
2023-01-20T10:54:22.881Z,86.57
2023-01-20T10:56:59.013Z,86.53
2023-01-20T10:59:31.420Z,86.48
2023-01-20T11:02:12.051Z,86.40
2023-01-20T11:04:39.158Z,86.02
2023-01-20T11:07:08.684Z,85.83
2023-01-20T11:09:38.158Z,84.96
2023-01-20T11:12:14.159Z,85.91
2023-01-20T11:14:41.383Z,85.14
2023-01-20T11:17:14.670Z,85.17
2023-01-20T11:19:55.345Z,85.35
2023-01-20T11:22:34.373Z,84.93
2023-01-20T11:25:04.078Z,84.79
2023-01-20T11:27:41.420Z,83.64
2023-01-20T11:30:23.444Z,83.18
2023-01-20T11:33:25.982Z,83.69
2023-01-20T11:36:16.801Z,85.23
2023-01-20T11:38:49.663Z,85.48
2023-01-20T11:41:21.053Z,84.97
2023-01-20T11:43:49.312Z,84.96
2023-01-20T11:46:19.544Z,84.55
2023-01-20T11:48:46.317Z,85.59
2023-01-20T11:51:18.992Z,85.20
2023-01-20T11:53:46.755Z,85.08
2023-01-20T11:56:24.678Z,84.09
2023-01-20T11:58:55.493Z,84.60
2023-01-20T12:01:30.916Z,85.73
2023-01-20T12:04:14.760Z,85.21
2023-01-20T12:06:53.901Z,84.77
2023-01-20T12:09:27.952Z,85.06
2023-01-20T12:11:57.521Z,84.53
2023-01-20T12:14:42.335Z,84.96
2023-01-20T12:17:09.012Z,85.86
2023-01-20T12:19:59.151Z,85.17
2023-01-20T12:22:58.873Z,84.98
2023-01-20T12:25:37.079Z,83.93
2023-01-20T12:28:13.349Z,83.69
2023-01-20T12:30:55.073Z,83.59
2023-01-20T12:33:24.872Z,84.07
2023-01-20T12:36:11.906Z,83.67
2023-01-20T12:39:00.371Z,83.02
2023-01-20T12:41:35.082Z,83.37
2023-01-20T12:44:36.577Z,83.38
2023-01-20T12:47:30.925Z,84.12
2023-01-20T12:49:57.416Z,82.20
2023-01-20T12:52:54.924Z,82.84
2023-01-20T12:55:45.037Z,82.83
2023-01-20T12:58:27.753Z,83.09
2023-01-20T13:01:16.843Z,83.33
2023-01-20T13:03:49.302Z,83.35
2023-01-20T13:06:42.512Z,83.26
2023-01-20T13:09:27.998Z,83.83
2023-01-20T13:12:26.055Z,82.25
2023-01-20T13:15:15.431Z,81.71
2023-01-20T13:17:47.998Z,81.79
2023-01-20T13:20:26.387Z,81.06
2023-01-20T13:22:54.679Z,81.23
2023-01-20T13:25:22.886Z,80.86
2023-01-20T13:27:51.341Z,81.51
2023-01-20T13:30:44.389Z,80.82
2023-01-20T13:33:38.877Z,80.80
2023-01-20T13:36:14.424Z,80.59
2023-01-20T13:38:41.152Z,80.14
2023-01-20T13:41:08.841Z,80.23
2023-01-20T13:43:43.976Z,80.71
2023-01-20T13:46:15.108Z,80.60
2023-01-20T13:49:33.399Z,80.60
2023-01-20T13:51:59.962Z,80.22
2023-01-20T13:54:28.946Z,80.42
2023-01-20T13:57:28.118Z,80.74
2023-01-20T13:59:55.925Z,80.85
2023-01-20T14:02:28.691Z,80.78
2023-01-20T14:04:55.721Z,80.69
2023-01-20T14:07:23.785Z,81.30
2023-01-20T14:09:55.705Z,81.72
2023-01-20T14:12:22.323Z,81.18
2023-01-20T14:14:50.221Z,82.30
2023-01-20T14:17:23.283Z,83.08
2023-01-20T14:19:52.600Z,81.58
2023-01-20T14:22:23.690Z,81.98
2023-01-20T14:24:59.909Z,82.18
2023-01-20T14:27:31.867Z,82.16
2023-01-20T14:30:17.023Z,82.26
2023-01-20T14:32:43.879Z,82.02
2023-01-20T14:35:17.147Z,82.41
2023-01-20T14:37:48.378Z,82.57
2023-01-20T14:40:15.122Z,82.38
2023-01-20T14:42:42.135Z,81.82
2023-01-20T14:45:23.571Z,83.08
2023-01-20T14:47:52.478Z,83.30
2023-01-20T14:50:20.098Z,82.72
2023-01-20T14:52:47.397Z,82.76
2023-01-20T14:55:58.454Z,82.29
2023-01-20T14:58:25.083Z,82.97
2023-01-20T15:00:54.931Z,83.09
2023-01-20T15:03:28.255Z,83.26
2023-01-20T15:06:00.583Z,83.59
2023-01-20T15:08:56.773Z,83.17
2023-01-20T15:11:28.354Z,82.97
2023-01-20T15:13:54.806Z,84.13
2023-01-20T15:16:43.986Z,84.37
2023-01-20T15:19:13.170Z,84.78
2023-01-20T15:22:00.780Z,84.01
2023-01-20T15:24:32.719Z,84.48
2023-01-20T15:27:01.678Z,84.04
2023-01-20T15:29:35.562Z,84.41
2023-01-20T15:32:10.337Z,85.67
2023-01-20T15:34:36.799Z,85.85
2023-01-20T15:37:14.202Z,85.57
2023-01-20T15:39:40.657Z,85.10
2023-01-20T15:42:11.598Z,84.87
2023-01-20T15:44:38.111Z,85.42
2023-01-20T15:47:31.323Z,86.26
2023-01-20T15:49:58.321Z,87.22
2023-01-20T15:52:24.928Z,86.89
2023-01-20T15:54:51.372Z,87.06
2023-01-20T15:57:18.199Z,86.83
2023-01-20T15:59:46.093Z,86.49
2023-01-20T16:02:20.948Z,87.07
2023-01-20T16:04:47.509Z,87.18
2023-01-20T16:07:19.538Z,86.89
2023-01-20T16:09:47.236Z,86.74
2023-01-20T16:12:18.602Z,86.78
2023-01-20T16:14:45.684Z,87.33
2023-01-20T16:17:23.349Z,87.02
2023-01-20T16:19:50.421Z,87.38
2023-01-20T16:22:17.221Z,87.54
2023-01-20T16:24:44.065Z,87.32
2023-01-20T16:27:19.819Z,87.46
2023-01-20T16:29:46.433Z,87.46
2023-01-20T16:32:15.228Z,88.40
2023-01-20T16:34:44.238Z,88.36
2023-01-20T16:37:13.632Z,88.75
2023-01-20T16:39:40.136Z,88.50
2023-01-20T16:42:06.693Z,89.04
2023-01-20T16:44:33.291Z,88.97
2023-01-20T16:47:00.234Z,88.97
2023-01-20T16:49:26.789Z,89.15
2023-01-20T16:51:53.352Z,89.42
2023-01-20T16:54:19.846Z,89.16
2023-01-20T16:56:46.356Z,89.46
2023-01-20T16:59:13.172Z,89.62
2023-01-20T17:01:40.311Z,88.90
2023-01-20T17:04:06.749Z,88.69
2023-01-20T17:06:34.615Z,88.92
2023-01-20T17:09:03.784Z,88.64
2023-01-20T17:11:32.857Z,88.50
2023-01-20T17:14:02.062Z,88.86
2023-01-20T17:16:29.095Z,89.70
2023-01-20T17:18:58.445Z,88.84
2023-01-20T17:21:27.451Z,88.36
2023-01-20T17:23:56.911Z,88.27
2023-01-20T17:26:24.448Z,88.45
2023-01-20T17:29:10.315Z,89.40
2023-01-20T17:31:37.192Z,88.84
2023-01-20T17:34:05.225Z,88.33
2023-01-20T17:36:34.547Z,88.69
2023-01-20T17:39:02.749Z,87.81
2023-01-20T17:41:29.359Z,88.10
2023-01-20T17:43:55.818Z,88.14
2023-01-20T17:46:28.066Z,88.59
2023-01-20T17:48:59.105Z,88.29
2023-01-20T17:51:28.026Z,88.03
2023-01-20T17:53:55.033Z,88.53
2023-01-20T17:56:22.642Z,88.14
2023-01-20T17:58:49.643Z,88.29
2023-01-20T18:01:17.507Z,87.94
2023-01-20T18:03:45.190Z,87.65
2023-01-20T18:06:13.857Z,88.37
2023-01-20T18:08:40.679Z,87.95
2023-01-20T18:11:15.019Z,87.62
2023-01-20T18:13:44.748Z,88.68
2023-01-20T18:16:13.709Z,88.45
2023-01-20T18:18:41.542Z,88.53
2023-01-20T18:21:22.460Z,87.78
2023-01-20T18:23:50.170Z,87.11
2023-01-20T18:26:21.443Z,87.11
2023-01-20T18:28:48.331Z,87.18
2023-01-20T18:31:18.724Z,87.17
2023-01-20T18:33:48.756Z,86.95
2023-01-20T18:36:25.901Z,86.54
2023-01-20T18:38:54.898Z,86.94
2023-01-20T18:41:21.874Z,87.83
2023-01-20T18:43:49.148Z,87.39
2023-01-20T18:46:16.419Z,87.57
2023-01-20T18:48:47.380Z,87.15
2023-01-20T18:51:15.854Z,87.49
2023-01-20T18:53:44.281Z,87.62
2023-01-20T18:56:13.114Z,87.84
2023-01-20T18:58:42.984Z,87.79
2023-01-20T19:01:12.190Z,88.87
2023-01-20T19:03:39.559Z,88.27
2023-01-20T19:06:08.475Z,86.45
2023-01-20T19:08:34.915Z,86.97
2023-01-20T19:11:02.310Z,87.92
2023-01-20T19:13:29.225Z,87.71
2023-01-20T19:15:56.126Z,87.93
2023-01-20T19:18:22.736Z,87.92
2023-01-20T19:20:49.175Z,87.52
2023-01-20T19:23:15.666Z,88.06
2023-01-20T19:25:42.177Z,87.54
2023-01-20T19:28:09.612Z,88.19
2023-01-20T19:30:36.387Z,87.98
2023-01-20T19:33:02.900Z,88.03
2023-01-20T19:35:31.562Z,88.12
2023-01-20T19:37:58.183Z,88.71
2023-01-20T19:40:24.747Z,88.29
2023-01-20T19:42:52.560Z,87.02
2023-01-20T19:45:19.149Z,87.75
2023-01-20T19:47:45.613Z,87.42
2023-01-20T19:50:12.196Z,87.02
2023-01-20T19:52:38.604Z,87.54
2023-01-20T19:55:05.637Z,88.02
2023-01-20T19:57:32.191Z,88.02
2023-01-20T19:59:58.914Z,88.34
2023-01-20T20:02:27.472Z,88.73
2023-01-20T20:04:53.993Z,88.06
2023-01-20T20:07:20.640Z,87.27
2023-01-20T20:09:47.097Z,87.00
2023-01-20T20:12:13.678Z,86.34
2023-01-20T20:14:40.249Z,86.36
2023-01-20T20:17:06.708Z,87.79
2023-01-20T20:19:33.171Z,88.10
2023-01-20T20:21:59.566Z,88.07
2023-01-20T20:24:25.992Z,88.23
2023-01-20T20:26:52.447Z,88.17
2023-01-20T20:29:19.493Z,89.18
2023-01-20T20:31:46.857Z,88.19
2023-01-20T20:34:16.803Z,87.47
2023-01-20T20:36:43.516Z,87.60
2023-01-20T20:39:13.654Z,88.23
2023-01-20T20:41:40.210Z,88.16
2023-01-20T20:44:06.972Z,87.70
2023-01-20T20:46:33.579Z,87.31
2023-01-20T20:49:01.137Z,87.84
2023-01-20T20:51:32.998Z,87.94
2023-01-20T20:54:01.503Z,88.14
2023-01-20T20:56:31.614Z,88.08
2023-01-20T20:59:02.247Z,88.68
2023-01-20T21:01:31.400Z,89.68
2023-01-20T21:04:00.186Z,89.45
2023-01-20T21:06:26.674Z,89.37
2023-01-20T21:08:53.172Z,88.83
2023-01-20T21:11:22.294Z,89.34
2023-01-20T21:13:51.396Z,88.64
2023-01-20T21:16:21.939Z,88.42
2023-01-20T21:18:49.559Z,87.94
2023-01-20T21:21:19.546Z,87.47
2023-01-20T21:23:51.436Z,87.77
2023-01-20T21:26:18.006Z,88.69
2023-01-20T21:28:44.633Z,89.09
2023-01-20T21:31:14.353Z,89.31
2023-01-20T21:33:42.413Z,88.53
2023-01-20T21:36:12.393Z,87.91
2023-01-20T21:38:41.522Z,88.29
2023-01-20T21:41:09.974Z,87.80
2023-01-20T21:44:00.849Z,87.24
2023-01-20T21:46:29.593Z,87.69
2023-01-20T21:49:14.514Z,86.46
2023-01-20T21:51:59.925Z,86.09
2023-01-20T21:54:30.372Z,86.22
2023-01-20T21:56:57.635Z,86.04
2023-01-20T21:59:24.105Z,86.83
2023-01-20T22:01:51.503Z,87.06
2023-01-20T22:04:18.753Z,87.33
2023-01-20T22:06:45.278Z,87.73
2023-01-20T22:09:12.422Z,87.35
2023-01-20T22:11:38.937Z,87.61
2023-01-20T22:14:05.546Z,87.51
2023-01-20T22:16:32.373Z,88.18
2023-01-20T22:18:58.876Z,88.13
2023-01-20T22:21:25.581Z,88.83
2023-01-20T22:23:52.340Z,88.10
2023-01-20T22:26:19.267Z,88.83
2023-01-20T22:28:45.735Z,88.93
2023-01-20T22:31:19.954Z,89.09
2023-01-20T22:33:51.576Z,88.11
2023-01-20T22:36:18.720Z,86.67
2023-01-20T22:38:46.201Z,86.73
2023-01-20T22:41:12.756Z,86.97
2023-01-20T22:43:41.168Z,87.25
2023-01-20T22:46:07.687Z,87.82
2023-01-20T22:48:34.535Z,88.30
2023-01-20T22:51:09.786Z,88.22
2023-01-20T22:53:37.134Z,88.17
2023-01-20T22:56:10.067Z,88.23
2023-01-20T22:58:37.303Z,88.80
2023-01-20T23:01:05.255Z,88.79
2023-01-20T23:03:31.855Z,89.00
2023-01-20T23:05:59.919Z,89.09
2023-01-20T23:08:28.317Z,89.17
2023-01-20T23:10:56.526Z,89.15
2023-01-20T23:13:23.262Z,89.14
2023-01-20T23:15:51.060Z,89.19
2023-01-20T23:18:18.836Z,89.48
2023-01-20T23:20:52.497Z,89.62
2023-01-20T23:23:20.537Z,89.44
2023-01-20T23:25:47.837Z,88.63
2023-01-20T23:28:15.145Z,88.04
2023-01-20T23:30:42.198Z,88.74
2023-01-20T23:33:10.582Z,89.28
2023-01-20T23:35:39.026Z,89.37
2023-01-20T23:38:06.878Z,89.89
2023-01-20T23:40:34.173Z,90.12
2023-01-20T23:43:00.886Z,90.20
2023-01-20T23:45:28.782Z,89.86
2023-01-20T23:47:55.521Z,89.84
2023-01-20T23:50:22.000Z,89.38
2023-01-20T23:52:48.429Z,88.83
2023-01-20T23:55:14.856Z,89.01
2023-01-20T23:57:41.336Z,89.88
